createdAt,value
2017-06-04T00:02:15.605Z,31.23
2017-06-04T00:04:43.919Z,31.60
2017-06-04T00:07:12.280Z,31.83
2017-06-04T00:09:40.563Z,32.00
2017-06-04T00:12:08.865Z,32.60
2017-06-04T00:14:37.177Z,33.60
2017-06-04T00:17:05.585Z,33.10
2017-06-04T00:19:34.134Z,36.67
2017-06-04T00:22:02.455Z,37.30
2017-06-04T00:24:30.753Z,41.43
2017-06-04T00:26:59.851Z,50.67
2017-06-04T00:29:28.957Z,37.73
2017-06-04T00:31:58.013Z,44.67
2017-06-04T00:34:26.299Z,42.83
2017-06-04T00:36:54.615Z,40.10
2017-06-04T00:39:22.906Z,38.77
2017-06-04T00:41:51.205Z,40.17
2017-06-04T00:44:19.481Z,38.90
2017-06-04T00:46:47.777Z,39.47
2017-06-04T00:49:16.092Z,41.97
2017-06-04T00:51:44.384Z,35.10
2017-06-04T00:54:12.699Z,35.00
2017-06-04T00:56:40.995Z,32.70
2017-06-04T00:59:09.286Z,34.07
2017-06-04T01:01:38.356Z,35.23
2017-06-04T01:04:06.627Z,32.93
2017-06-04T01:06:34.927Z,30.27
2017-06-04T01:09:04.103Z,26.87
2017-06-04T01:11:32.395Z,28.87
2017-06-04T01:14:01.565Z,27.70
2017-06-04T01:16:29.876Z,26.20
2017-06-04T01:18:58.189Z,26.37
2017-06-04T01:21:26.477Z,27.40
2017-06-04T01:23:54.779Z,27.00
2017-06-04T01:26:23.072Z,23.83
2017-06-04T01:28:51.399Z,21.97
2017-06-04T01:31:19.731Z,24.27
2017-06-04T01:33:48.069Z,21.73
2017-06-04T01:36:16.353Z,19.77
2017-06-04T01:38:44.656Z,22.33
2017-06-04T01:41:12.943Z,20.47
2017-06-04T01:43:42.006Z,22.20
2017-06-04T01:46:10.317Z,23.27
2017-06-04T01:48:39.382Z,25.17
2017-06-04T01:51:07.683Z,24.13
2017-06-04T01:53:36.084Z,22.53
2017-06-04T01:56:05.181Z,23.20
2017-06-04T01:58:33.484Z,23.07
2017-06-04T02:01:01.796Z,22.57
2017-06-04T02:03:30.092Z,24.63
2017-06-04T02:05:59.137Z,23.97
2017-06-04T02:08:27.532Z,23.50
2017-06-04T02:10:55.852Z,26.80
2017-06-04T02:13:24.917Z,25.80
2017-06-04T02:15:53.187Z,27.00
2017-06-04T02:18:21.483Z,27.20
2017-06-04T02:20:49.787Z,24.90
2017-06-04T02:23:18.060Z,28.27
2017-06-04T02:25:46.385Z,27.43
2017-06-04T02:28:14.909Z,28.17
2017-06-04T02:30:43.974Z,28.53
2017-06-04T02:33:12.288Z,30.50
2017-06-04T02:35:41.350Z,29.80
2017-06-04T02:38:09.761Z,29.50
2017-06-04T02:40:38.047Z,30.30
2017-06-04T02:43:06.334Z,31.57
2017-06-04T02:45:34.620Z,30.70
2017-06-04T02:48:02.928Z,38.23
2017-06-04T02:50:31.226Z,31.20
2017-06-04T02:52:59.533Z,32.87
2017-06-04T02:55:27.833Z,31.63
2017-06-04T02:57:56.110Z,31.03
2017-06-04T03:00:24.397Z,32.03
2017-06-04T03:02:52.689Z,31.30
2017-06-04T03:05:21.030Z,35.53
2017-06-04T03:07:49.325Z,36.43
2017-06-04T03:10:17.636Z,30.83
2017-06-04T03:12:45.919Z,33.40
2017-06-04T03:15:14.230Z,36.57
2017-06-04T03:17:42.534Z,35.90
2017-06-04T03:20:11.052Z,38.40
2017-06-04T03:22:39.357Z,33.23
2017-06-04T03:25:07.904Z,37.40
2017-06-04T03:27:36.193Z,32.00
2017-06-04T03:30:04.505Z,36.40
2017-06-04T03:32:32.813Z,32.10
2017-06-04T03:35:01.158Z,31.07
2017-06-04T03:37:29.442Z,31.43
2017-06-04T03:39:57.728Z,32.00
2017-06-04T03:42:26.104Z,29.40
2017-06-04T03:44:54.372Z,29.57
2017-06-04T03:47:23.557Z,32.83
2017-06-04T03:49:51.880Z,28.67
2017-06-04T03:52:20.159Z,31.90
2017-06-04T03:54:48.460Z,28.67
2017-06-04T03:57:16.792Z,31.13
2017-06-04T03:59:45.089Z,35.50
2017-06-04T04:02:13.544Z,27.60
2017-06-04T04:04:41.840Z,29.30
2017-06-04T04:07:10.119Z,28.03
2017-06-04T04:09:38.432Z,28.50
2017-06-04T04:12:06.817Z,27.90
2017-06-04T04:14:35.096Z,26.97
2017-06-04T04:17:03.472Z,26.77
2017-06-04T04:19:31.788Z,26.50
2017-06-04T04:22:00.088Z,28.73
2017-06-04T04:24:28.380Z,31.93
2017-06-04T04:26:56.664Z,32.90
2017-06-04T04:29:24.960Z,32.70
2017-06-04T04:31:53.271Z,31.03
2017-06-04T04:34:21.547Z,31.87
2017-06-04T04:36:49.841Z,30.90
2017-06-04T04:39:18.148Z,30.17
2017-06-04T04:41:46.455Z,32.60
2017-06-04T04:44:14.781Z,30.70
2017-06-04T04:46:43.080Z,33.90
2017-06-04T04:49:11.364Z,31.77
2017-06-04T04:51:39.670Z,30.00
2017-06-04T04:54:07.980Z,29.83
2017-06-04T04:56:36.261Z,30.90
2017-06-04T04:59:04.572Z,32.00
2017-06-04T05:01:32.863Z,33.27
2017-06-04T05:04:01.168Z,28.30
2017-06-04T05:06:29.446Z,25.57
2017-06-04T05:08:57.739Z,26.03
2017-06-04T05:11:26.044Z,27.63
2017-06-04T05:13:54.353Z,24.13
2017-06-04T05:16:22.882Z,24.37
2017-06-04T05:18:51.212Z,23.33
2017-06-04T05:21:19.508Z,26.43
2017-06-04T05:23:53.105Z,24.33
2017-06-04T05:26:21.416Z,22.10
2017-06-04T05:29:01.413Z,23.60
2017-06-04T05:31:29.725Z,23.87
2017-06-04T05:33:58.026Z,22.60
2017-06-04T05:36:26.321Z,24.30
2017-06-04T05:38:54.628Z,25.53
2017-06-04T05:41:22.912Z,24.63
2017-06-04T05:43:51.320Z,22.53
2017-06-04T05:46:19.617Z,23.17
2017-06-04T05:48:48.155Z,25.23
2017-06-04T05:51:16.427Z,24.27
2017-06-04T05:53:44.743Z,25.27
2017-06-04T05:56:13.041Z,22.00
2017-06-04T05:58:41.335Z,26.60
2017-06-04T06:01:09.631Z,27.63
2017-06-04T06:03:37.937Z,25.03
2017-06-04T06:06:06.260Z,29.03
2017-06-04T06:08:34.538Z,25.43
2017-06-04T06:11:02.846Z,24.97
2017-06-04T06:13:31.133Z,25.43
2017-06-04T06:15:59.445Z,24.20
2017-06-04T06:18:27.743Z,26.97
2017-06-04T06:20:56.027Z,23.37
2017-06-04T06:23:24.323Z,25.13
2017-06-04T06:25:52.610Z,22.83
2017-06-04T06:28:20.914Z,22.67
2017-06-04T06:30:49.216Z,23.40
2017-06-04T06:33:17.608Z,23.40
2017-06-04T06:35:46.703Z,19.23
2017-06-04T06:38:15.003Z,18.33
2017-06-04T06:40:43.299Z,19.80
2017-06-04T06:43:11.779Z,17.43
2017-06-04T06:45:40.059Z,19.40
2017-06-04T06:48:08.409Z,15.40
2017-06-04T06:50:36.722Z,18.10
2017-06-04T06:53:05.108Z,16.17
2017-06-04T06:55:34.220Z,16.43
2017-06-04T06:58:02.497Z,13.97
2017-06-04T07:00:30.816Z,14.77
2017-06-04T07:02:59.100Z,12.90
2017-06-04T07:05:27.416Z,13.83
2017-06-04T07:07:55.745Z,14.43
2017-06-04T07:10:24.937Z,12.27
2017-06-04T07:12:54.002Z,12.93
2017-06-04T07:15:22.331Z,12.83
2017-06-04T07:17:50.641Z,17.00
2017-06-04T07:20:18.930Z,13.47
2017-06-04T07:22:47.221Z,11.90
2017-06-04T07:25:15.534Z,11.60
2017-06-04T07:27:43.827Z,11.70
2017-06-04T07:30:12.427Z,11.83
2017-06-04T07:32:40.727Z,14.80
2017-06-04T07:35:09.020Z,12.47
2017-06-04T07:37:38.060Z,10.63
2017-06-04T07:40:06.384Z,11.47
2017-06-04T07:42:34.676Z,9.77
2017-06-04T07:45:03.747Z,12.53
2017-06-04T07:47:32.065Z,10.23
2017-06-04T07:50:00.352Z,10.17
2017-06-04T07:52:28.688Z,11.40
2017-06-04T07:54:56.997Z,11.53
2017-06-04T07:57:25.276Z,11.33
2017-06-04T07:59:53.572Z,12.37
2017-06-04T08:02:21.876Z,9.77
2017-06-04T08:04:50.236Z,10.17
2017-06-04T08:07:18.569Z,11.10
2017-06-04T08:09:46.857Z,11.10
2017-06-04T08:12:15.187Z,10.10
2017-06-04T08:14:43.479Z,10.80
2017-06-04T08:17:11.785Z,11.17
2017-06-04T08:19:40.075Z,11.17
2017-06-04T08:22:08.381Z,10.50
2017-06-04T08:24:36.665Z,11.97
2017-06-04T08:27:04.986Z,11.40
2017-06-04T08:29:34.027Z,10.90
2017-06-04T08:32:02.317Z,10.23
2017-06-04T08:34:30.629Z,11.70
2017-06-04T08:36:59.685Z,10.47
2017-06-04T08:39:27.996Z,9.60
2017-06-04T08:41:56.314Z,7.13
2017-06-04T08:44:24.609Z,9.93
2017-06-04T08:46:52.944Z,10.53
2017-06-04T08:49:21.222Z,7.60
2017-06-04T08:51:49.554Z,8.57
2017-06-04T08:54:17.857Z,7.57
2017-06-04T08:56:46.939Z,8.17
2017-06-04T08:59:15.285Z,7.50
2017-06-04T09:01:43.580Z,8.13
2017-06-04T09:04:11.873Z,9.63
2017-06-04T09:06:40.160Z,8.93
2017-06-04T09:09:09.254Z,10.50
2017-06-04T09:11:38.306Z,7.73
2017-06-04T09:14:06.964Z,6.87
2017-06-04T09:16:35.268Z,8.57
2017-06-04T09:19:03.600Z,9.70
2017-06-04T09:21:31.882Z,7.17
2017-06-04T09:24:00.204Z,7.40
2017-06-04T09:26:28.505Z,7.30
2017-06-04T09:28:56.937Z,6.27
2017-06-04T09:31:25.241Z,8.30
2017-06-04T09:33:53.625Z,9.90
2017-06-04T09:36:21.900Z,11.50
2017-06-04T09:38:50.172Z,5.87
2017-06-04T09:41:18.473Z,7.30
2017-06-04T09:43:46.766Z,5.80
2017-06-04T09:46:15.832Z,5.33
2017-06-04T09:48:44.148Z,10.53
2017-06-04T09:51:13.232Z,8.07
2017-06-04T09:53:42.304Z,7.90
2017-06-04T09:56:10.625Z,7.30
2017-06-04T09:58:38.892Z,7.67
2017-06-04T10:01:07.195Z,7.70
2017-06-04T10:03:35.496Z,8.37
2017-06-04T10:06:04.447Z,10.17
2017-06-04T10:08:32.746Z,8.13
2017-06-04T10:11:01.038Z,9.17
2017-06-04T10:13:29.353Z,11.20
2017-06-04T10:15:57.679Z,9.53
2017-06-04T10:18:25.984Z,9.10
2017-06-04T10:20:54.279Z,10.73
2017-06-04T10:23:22.576Z,11.30
2017-06-04T10:25:50.885Z,12.27
2017-06-04T10:28:19.157Z,12.73
2017-06-04T10:30:47.673Z,12.03
2017-06-04T10:33:15.977Z,13.70
2017-06-04T10:35:45.024Z,11.90
2017-06-04T10:38:13.317Z,13.77
2017-06-04T10:40:41.629Z,15.03
2017-06-04T10:43:09.996Z,15.57
2017-06-04T10:45:38.295Z,17.13
2017-06-04T10:48:07.381Z,17.40
2017-06-04T10:50:36.466Z,18.47
2017-06-04T10:53:05.532Z,17.57
2017-06-04T10:55:33.853Z,16.90
2017-06-04T10:58:02.917Z,12.60
2017-06-04T11:00:31.542Z,16.17
2017-06-04T11:02:59.840Z,10.13
2017-06-04T11:05:28.390Z,10.53
2017-06-04T11:07:57.444Z,13.60
2017-06-04T11:10:25.771Z,13.17
2017-06-04T11:12:54.072Z,13.10
2017-06-04T11:15:22.377Z,11.87
2017-06-04T11:17:50.669Z,13.13
2017-06-04T11:20:19.142Z,12.80
2017-06-04T11:22:47.469Z,10.00
2017-06-04T11:25:15.786Z,12.87
2017-06-04T11:27:44.095Z,12.03
2017-06-04T11:30:12.524Z,11.83
2017-06-04T11:32:40.826Z,13.33
2017-06-04T11:35:09.145Z,12.17
2017-06-04T11:37:37.448Z,12.63
2017-06-04T11:40:05.783Z,14.60
2017-06-04T11:42:34.085Z,11.63
2017-06-04T11:45:02.483Z,11.00
2017-06-04T11:47:30.790Z,10.40
2017-06-04T11:49:59.075Z,12.50
2017-06-04T11:52:27.393Z,12.23
2017-06-04T11:54:55.687Z,13.80
2017-06-04T11:57:24.009Z,12.57
2017-06-04T11:59:52.309Z,11.70
2017-06-04T12:02:21.348Z,10.87
2017-06-04T12:04:49.667Z,9.33
2017-06-04T12:07:17.964Z,12.07
2017-06-04T12:09:46.267Z,12.30
2017-06-04T12:12:14.561Z,12.63
2017-06-04T12:14:42.859Z,11.17
2017-06-04T12:17:11.166Z,11.20
2017-06-04T12:19:39.486Z,12.20
2017-06-04T12:22:07.805Z,12.00
2017-06-04T12:24:36.127Z,11.67
2017-06-04T12:27:04.415Z,11.70
2017-06-04T12:29:32.716Z,11.77
2017-06-04T12:32:01.013Z,11.87
2017-06-04T12:34:29.280Z,11.70
2017-06-04T12:36:57.591Z,11.57
2017-06-04T12:39:25.875Z,11.80
2017-06-04T12:41:54.168Z,11.63
2017-06-04T12:44:22.498Z,9.03
2017-06-04T12:46:50.810Z,10.27
2017-06-04T12:49:19.080Z,9.50
2017-06-04T12:51:47.395Z,8.10
2017-06-04T12:54:15.756Z,10.07
2017-06-04T12:56:44.052Z,7.83
2017-06-04T12:59:12.573Z,8.03
2017-06-04T13:01:41.657Z,7.63
2017-06-04T13:04:09.954Z,7.47
2017-06-04T13:06:39.017Z,8.93
2017-06-04T13:09:07.354Z,7.60
2017-06-04T13:11:35.629Z,8.13
2017-06-04T13:14:04.063Z,8.70
2017-06-04T13:16:32.375Z,7.63
2017-06-04T13:19:00.669Z,8.43
2017-06-04T13:21:28.950Z,7.37
2017-06-04T13:23:57.267Z,6.23
2017-06-04T13:26:25.608Z,7.10
2017-06-04T13:28:53.933Z,7.83
2017-06-04T13:31:22.227Z,7.70
2017-06-04T13:33:50.901Z,7.77
2017-06-04T13:36:19.955Z,8.13
2017-06-04T13:38:48.251Z,8.93
2017-06-04T13:41:16.535Z,8.00
2017-06-04T13:43:44.845Z,8.00
2017-06-04T13:46:13.161Z,7.80
2017-06-04T13:48:41.437Z,9.00
2017-06-04T13:51:09.786Z,10.87
2017-06-04T13:53:38.101Z,12.20
2017-06-04T13:56:07.080Z,11.57
2017-06-04T13:58:35.569Z,8.93
2017-06-04T14:01:03.902Z,9.93
2017-06-04T14:03:32.201Z,11.27
2017-06-04T14:06:00.505Z,14.97
2017-06-04T14:08:28.798Z,13.50
2017-06-04T14:10:57.088Z,14.50
2017-06-04T14:13:26.167Z,16.23
2017-06-04T14:15:54.468Z,13.60
2017-06-04T14:18:24.129Z,14.27
2017-06-04T14:20:52.500Z,14.00
2017-06-04T14:23:20.811Z,15.83
2017-06-04T14:25:49.134Z,15.70
2017-06-04T14:28:17.421Z,14.87
2017-06-04T14:30:45.720Z,16.37
2017-06-04T14:33:14.031Z,16.83
2017-06-04T14:35:43.153Z,14.60
2017-06-04T14:38:11.451Z,15.80
2017-06-04T14:40:39.777Z,14.03
2017-06-04T14:43:08.098Z,14.93
2017-06-04T14:45:36.384Z,14.00
2017-06-04T14:48:04.795Z,14.53
2017-06-04T14:50:33.084Z,13.93
2017-06-04T14:53:01.379Z,17.03
2017-06-04T14:55:30.472Z,13.07
2017-06-04T14:57:59.516Z,15.97
2017-06-04T15:00:27.794Z,11.37
2017-06-04T15:02:56.218Z,13.17
2017-06-04T15:05:24.497Z,10.60
2017-06-04T15:07:53.536Z,10.93
2017-06-04T15:10:21.870Z,12.13
2017-06-04T15:12:50.153Z,12.10
2017-06-04T15:15:19.185Z,11.37
2017-06-04T15:17:47.482Z,7.00
2017-06-04T15:20:15.779Z,4.03
2017-06-04T15:22:44.055Z,4.33
2017-06-04T15:25:12.502Z,3.90
2017-06-04T15:27:40.768Z,4.03
2017-06-04T15:30:09.064Z,5.30
2017-06-04T15:32:37.389Z,2.63
2017-06-04T15:35:06.462Z,2.73
2017-06-04T15:37:34.744Z,4.03
2017-06-04T15:40:03.056Z,3.40
2017-06-04T15:42:31.358Z,4.90
2017-06-04T15:44:59.653Z,2.70
2017-06-04T15:47:27.925Z,3.40
2017-06-04T15:49:56.275Z,2.70
2017-06-04T15:52:24.574Z,3.33
2017-06-04T15:54:52.844Z,4.00
2017-06-04T15:57:21.175Z,4.47
2017-06-04T15:59:50.210Z,5.67
2017-06-04T16:02:18.504Z,3.87
2017-06-04T16:04:46.827Z,5.37
2017-06-04T16:07:15.923Z,3.30
2017-06-04T16:09:44.201Z,2.80
2017-06-04T16:12:12.640Z,4.00
2017-06-04T16:14:40.908Z,5.53
2017-06-04T16:17:09.216Z,12.40
2017-06-04T16:19:37.491Z,4.50
2017-06-04T16:22:05.813Z,11.00
2017-06-04T16:24:34.090Z,5.67
2017-06-04T16:27:02.413Z,5.50
2017-06-04T16:29:30.735Z,4.27
2017-06-04T16:31:59.048Z,5.67
2017-06-04T16:34:27.342Z,5.33
2017-06-04T16:36:55.652Z,3.80
2017-06-04T16:39:24.724Z,3.37
2017-06-04T16:41:53.037Z,5.47
2017-06-04T16:44:21.321Z,4.77
2017-06-04T16:46:49.619Z,9.67
2017-06-04T16:49:17.905Z,3.50
2017-06-04T16:51:46.210Z,5.30
2017-06-04T16:54:14.495Z,5.53
2017-06-04T16:56:43.540Z,10.03
2017-06-04T16:59:12.687Z,5.07
2017-06-04T17:01:41.756Z,3.37
2017-06-04T17:04:10.098Z,4.90
2017-06-04T17:06:38.431Z,7.70
2017-06-04T17:09:07.517Z,5.70
2017-06-04T17:11:35.805Z,4.43
2017-06-04T17:14:04.876Z,4.63
2017-06-04T17:16:33.213Z,3.50
2017-06-04T17:19:01.486Z,4.53
2017-06-04T17:21:29.785Z,7.27
2017-06-04T17:23:59.724Z,5.20
2017-06-04T17:26:28.024Z,6.13
2017-06-04T17:28:57.177Z,4.33
2017-06-04T17:31:25.478Z,2.90
2017-06-04T17:33:53.874Z,3.70
2017-06-04T17:36:23.016Z,6.60
2017-06-04T17:38:51.333Z,5.10
2017-06-04T17:41:19.625Z,2.20
2017-06-04T17:43:48.182Z,4.87
2017-06-04T17:46:16.885Z,4.40
2017-06-04T17:48:45.331Z,7.17
2017-06-04T17:51:13.608Z,5.87
2017-06-04T17:53:41.940Z,3.70
2017-06-04T17:56:11.236Z,2.97
2017-06-04T17:58:40.283Z,6.33
2017-06-04T18:01:08.648Z,4.40
2017-06-04T18:03:36.969Z,5.80
2017-06-04T18:06:05.255Z,5.20
2017-06-04T18:08:34.426Z,3.03
2017-06-04T18:11:02.701Z,5.57
2017-06-04T18:13:31.014Z,5.90
2017-06-04T18:15:59.327Z,6.20
2017-06-04T18:18:27.626Z,3.43
2017-06-04T18:21:01.375Z,3.80
2017-06-04T18:23:30.450Z,4.03
2017-06-04T18:25:58.759Z,7.10
2017-06-04T18:28:27.090Z,4.50
2017-06-04T18:30:55.397Z,5.60
2017-06-04T18:33:23.699Z,4.90
2017-06-04T18:35:52.057Z,4.40
2017-06-04T18:38:20.337Z,5.93
2017-06-04T18:40:49.384Z,4.83
2017-06-04T18:43:17.860Z,5.43
2017-06-04T18:45:46.174Z,3.27
2017-06-04T18:48:14.476Z,3.40
2017-06-04T18:50:42.790Z,3.40
2017-06-04T18:53:11.462Z,5.00
2017-06-04T18:55:39.738Z,4.77
2017-06-04T18:58:08.030Z,6.80
2017-06-04T19:00:36.363Z,3.37
2017-06-04T19:03:05.419Z,8.20
2017-06-04T19:05:33.734Z,3.80
2017-06-04T19:08:03.658Z,5.47
2017-06-04T19:10:32.231Z,5.03
2017-06-04T19:13:01.302Z,6.07
2017-06-04T19:15:29.595Z,4.37
2017-06-04T19:17:57.928Z,6.13
2017-06-04T19:20:26.259Z,5.47
2017-06-04T19:22:54.554Z,8.23
2017-06-04T19:25:23.044Z,11.93
2017-06-04T19:27:51.338Z,6.63
2017-06-04T19:30:19.785Z,6.50
2017-06-04T19:32:48.099Z,7.67
2017-06-04T19:35:16.373Z,5.20
2017-06-04T19:37:44.693Z,4.80
2017-06-04T19:40:14.525Z,4.57
2017-06-04T19:42:42.803Z,7.50
2017-06-04T19:45:11.120Z,5.40
2017-06-04T19:47:39.430Z,5.57
2017-06-04T19:50:07.755Z,4.67
2017-06-04T19:52:36.061Z,4.80
2017-06-04T19:55:04.364Z,4.23
2017-06-04T19:57:32.674Z,3.40
2017-06-04T20:00:00.997Z,3.07
2017-06-04T20:02:29.289Z,5.83
2017-06-04T20:04:57.572Z,3.10
2017-06-04T20:07:26.716Z,2.47
2017-06-04T20:09:55.082Z,4.00
2017-06-04T20:12:23.386Z,6.03
2017-06-04T20:14:51.697Z,4.33
2017-06-04T20:17:20.015Z,4.13
2017-06-04T20:19:48.324Z,3.63
2017-06-04T20:22:16.673Z,6.30
2017-06-04T20:24:44.974Z,4.27
2017-06-04T20:27:13.249Z,3.37
2017-06-04T20:29:41.561Z,2.33
2017-06-04T20:32:09.950Z,6.07
2017-06-04T20:34:39.047Z,3.50
2017-06-04T20:37:08.124Z,6.57
2017-06-04T20:39:36.414Z,4.63
2017-06-04T20:42:05.541Z,3.87
2017-06-04T20:44:33.831Z,2.50
2017-06-04T20:47:02.121Z,7.13
2017-06-04T20:49:30.444Z,3.23
2017-06-04T20:51:59.529Z,10.00
2017-06-04T20:54:27.859Z,6.30
2017-06-04T20:56:56.181Z,5.37
2017-06-04T20:59:24.471Z,4.70
2017-06-04T21:01:53.657Z,6.40
2017-06-04T21:04:21.956Z,3.17
2017-06-04T21:06:50.991Z,3.90
2017-06-04T21:09:19.275Z,5.90
2017-06-04T21:11:47.584Z,3.17
2017-06-04T21:14:16.202Z,4.60
2017-06-04T21:16:44.498Z,6.27
2017-06-04T21:19:12.816Z,4.20
2017-06-04T21:21:41.112Z,3.97
2017-06-04T21:24:10.175Z,3.17
2017-06-04T21:26:38.473Z,5.10
2017-06-04T21:29:07.534Z,3.20
2017-06-04T21:31:35.842Z,3.87
2017-06-04T21:34:04.172Z,4.03
2017-06-04T21:36:32.512Z,3.07
2017-06-04T21:39:01.634Z,7.53
2017-06-04T21:41:29.936Z,6.30
2017-06-04T21:43:58.207Z,4.03
2017-06-04T21:46:26.537Z,7.83
2017-06-04T21:48:55.609Z,5.60
2017-06-04T21:51:23.877Z,5.87
2017-06-04T21:53:52.153Z,7.27
2017-06-04T21:56:20.465Z,6.43
2017-06-04T21:58:49.548Z,6.10
2017-06-04T22:01:17.826Z,5.40
2017-06-04T22:03:46.880Z,2.83
2017-06-04T22:06:15.191Z,5.10
2017-06-04T22:08:43.467Z,3.60
2017-06-04T22:11:11.777Z,3.80
2017-06-04T22:13:40.068Z,4.23
2017-06-04T22:16:08.353Z,3.43
2017-06-04T22:18:36.644Z,3.47
2017-06-04T22:21:04.962Z,3.83
2017-06-04T22:23:34.027Z,3.80
2017-06-04T22:26:02.334Z,2.80
2017-06-04T22:28:31.409Z,3.73
2017-06-04T22:30:59.712Z,2.50
2017-06-04T22:33:28.744Z,3.33
2017-06-04T22:35:57.045Z,3.47
2017-06-04T22:38:25.348Z,4.83
2017-06-04T22:40:54.420Z,3.03
2017-06-04T22:43:22.708Z,3.67
2017-06-04T22:45:50.985Z,7.03
2017-06-04T22:48:19.258Z,2.40
2017-06-04T22:50:47.553Z,2.87
2017-06-04T22:53:16.631Z,5.17
2017-06-04T22:55:44.925Z,3.00
2017-06-04T22:58:13.997Z,3.10
2017-06-04T23:00:42.307Z,7.73
2017-06-04T23:03:11.352Z,3.73
2017-06-04T23:05:39.664Z,5.73
2017-06-04T23:08:08.715Z,3.03
2017-06-04T23:10:36.994Z,3.67
2017-06-04T23:13:05.276Z,4.37
2017-06-04T23:15:33.568Z,5.17
2017-06-04T23:18:01.860Z,4.13
2017-06-04T23:20:30.171Z,3.70
2017-06-04T23:22:58.493Z,2.90
2017-06-04T23:25:26.797Z,4.43
2017-06-04T23:27:55.866Z,3.50
2017-06-04T23:30:24.320Z,4.67
2017-06-04T23:32:52.590Z,4.40
2017-06-04T23:35:20.883Z,4.70
2017-06-04T23:37:49.192Z,5.50
2017-06-04T23:40:17.740Z,3.80
2017-06-04T23:42:46.038Z,4.80
2017-06-04T23:45:14.348Z,5.70
2017-06-04T23:47:43.390Z,4.20
2017-06-04T23:50:11.677Z,3.73
2017-06-04T23:52:39.969Z,2.37
2017-06-04T23:55:08.245Z,3.50
2017-06-04T23:57:36.517Z,3.63
